createdAt,value
2019-05-01T00:01:15.280Z,14.77
2019-05-01T00:04:01.183Z,13.90
2019-05-01T00:06:35.714Z,10.57
2019-05-01T00:09:05.856Z,13.50
2019-05-01T00:11:34.430Z,13.57
2019-05-01T00:14:01.956Z,12.60
2019-05-01T00:16:29.583Z,14.33
2019-05-01T00:18:57.014Z,13.00
2019-05-01T00:21:24.497Z,14.00
2019-05-01T00:23:52.094Z,12.60
2019-05-01T00:26:19.727Z,14.10
2019-05-01T00:28:47.470Z,14.43
2019-05-01T00:31:15.150Z,14.37
2019-05-01T00:33:43.836Z,13.40
2019-05-01T00:36:11.478Z,14.47
2019-05-01T00:38:39.071Z,13.73
2019-05-01T00:41:06.515Z,13.80
2019-05-01T00:43:33.971Z,14.13
2019-05-01T00:46:02.419Z,12.03
2019-05-01T00:48:29.942Z,15.57
2019-05-01T00:50:57.545Z,15.90
2019-05-01T00:53:25.098Z,13.43
2019-05-01T00:56:05.865Z,14.37
2019-05-01T00:58:59.125Z,14.07
2019-05-01T01:02:04.531Z,13.90
2019-05-01T01:04:35.652Z,13.03
2019-05-01T01:07:03.165Z,13.07
2019-05-01T01:09:30.601Z,15.30
2019-05-01T01:11:58.052Z,13.03
2019-05-01T01:14:25.539Z,14.00
2019-05-01T01:16:53.086Z,13.87
2019-05-01T01:19:20.528Z,13.20
2019-05-01T01:21:47.965Z,13.13
2019-05-01T01:24:15.501Z,12.27
2019-05-01T01:26:43.205Z,12.47
2019-05-01T01:29:10.673Z,11.93
2019-05-01T01:31:38.579Z,13.63
2019-05-01T01:34:06.183Z,13.77
2019-05-01T01:36:33.681Z,13.37
2019-05-01T01:39:01.482Z,14.23
2019-05-01T01:41:31.341Z,13.60
2019-05-01T01:44:12.413Z,13.57
2019-05-01T01:46:41.887Z,12.40
2019-05-01T01:49:09.389Z,13.60
2019-05-01T01:51:37.074Z,12.90
2019-05-01T01:54:04.809Z,12.07
2019-05-01T01:56:33.362Z,13.87
2019-05-01T01:59:02.132Z,13.10
2019-05-01T02:01:51.959Z,12.63
2019-05-01T02:04:40.208Z,12.40
2019-05-01T02:07:07.784Z,12.77
2019-05-01T02:09:35.184Z,13.70
2019-05-01T02:12:02.728Z,13.00
2019-05-01T02:14:30.159Z,13.00
2019-05-01T02:16:57.621Z,12.90
2019-05-01T02:19:25.232Z,13.23
2019-05-01T02:21:52.665Z,13.43
2019-05-01T02:24:20.156Z,12.33
2019-05-01T02:26:49.777Z,13.00
2019-05-01T02:29:32.399Z,11.60
2019-05-01T02:31:59.949Z,11.63
2019-05-01T02:34:28.180Z,12.33
2019-05-01T02:36:59.347Z,12.00
2019-05-01T02:39:29.583Z,13.60
2019-05-01T02:41:59.946Z,14.00
2019-05-01T02:44:33.616Z,11.57
2019-05-01T02:47:03.909Z,12.40
2019-05-01T02:49:38.261Z,12.93
2019-05-01T02:52:08.742Z,12.93
2019-05-01T02:54:37.595Z,12.40
2019-05-01T02:57:10.858Z,12.23
2019-05-01T02:59:41.102Z,11.73
2019-05-01T03:02:31.208Z,11.67
2019-05-01T03:05:02.351Z,11.10
2019-05-01T03:07:32.617Z,12.77
2019-05-01T03:10:01.977Z,11.90
2019-05-01T03:12:30.314Z,11.17
2019-05-01T03:15:01.420Z,12.47
2019-05-01T03:17:47.331Z,11.23
2019-05-01T03:20:29.040Z,11.40
2019-05-01T03:23:15.926Z,10.90
2019-05-01T03:25:43.897Z,13.10
2019-05-01T03:28:12.006Z,11.87
2019-05-01T03:30:39.582Z,9.73
2019-05-01T03:33:07.255Z,10.17
2019-05-01T03:35:35.380Z,10.30
2019-05-01T03:38:03.409Z,9.80
2019-05-01T03:40:31.287Z,11.17
2019-05-01T03:42:59.377Z,10.43
2019-05-01T03:45:26.965Z,11.77
2019-05-01T03:47:54.844Z,12.10
2019-05-01T03:50:23.081Z,10.57
2019-05-01T03:52:50.947Z,11.53
2019-05-01T03:55:18.749Z,11.03
2019-05-01T03:57:46.401Z,10.83
2019-05-01T04:00:18.489Z,9.77
2019-05-01T04:03:08.833Z,10.80
2019-05-01T04:05:36.325Z,10.03
2019-05-01T04:08:03.849Z,10.23
2019-05-01T04:10:31.476Z,9.27
2019-05-01T04:12:59.159Z,10.77
2019-05-01T04:15:26.936Z,12.00
2019-05-01T04:17:56.375Z,10.10
2019-05-01T04:20:24.175Z,9.63
2019-05-01T04:22:51.693Z,10.70
2019-05-01T04:25:19.190Z,9.77
2019-05-01T04:27:48.749Z,9.30
2019-05-01T04:30:32.511Z,10.40
2019-05-01T04:33:02.519Z,10.13
2019-05-01T04:35:49.547Z,9.27
2019-05-01T04:38:17.514Z,9.40
2019-05-01T04:40:45.141Z,9.27
2019-05-01T04:43:12.711Z,9.13
2019-05-01T04:45:40.335Z,10.53
2019-05-01T04:48:08.143Z,9.57
2019-05-01T04:50:35.643Z,8.90
2019-05-01T04:53:03.437Z,8.33
2019-05-01T04:55:31.876Z,9.73
2019-05-01T04:57:59.317Z,10.70
2019-05-01T05:00:27.089Z,9.70
2019-05-01T05:03:06.726Z,10.77
2019-05-01T05:05:34.285Z,11.17
2019-05-01T05:08:03.111Z,12.23
2019-05-01T05:10:31.776Z,12.00
2019-05-01T05:13:05.550Z,11.80
2019-05-01T05:15:55.504Z,11.13
2019-05-01T05:18:23.301Z,9.33
2019-05-01T05:20:51.367Z,8.63
2019-05-01T05:23:19.416Z,10.00
2019-05-01T05:25:47.487Z,9.30
2019-05-01T05:28:15.341Z,9.80
2019-05-01T05:30:44.119Z,10.90
2019-05-01T05:33:18.637Z,9.53
2019-05-01T05:35:43.106Z,10.67
2019-05-01T05:38:24.075Z,10.50
2019-05-01T05:40:51.993Z,10.67
2019-05-01T05:43:19.894Z,11.27
2019-05-01T05:45:47.821Z,11.93
2019-05-01T05:48:15.620Z,11.20
2019-05-01T05:50:57.102Z,12.23
2019-05-01T05:53:29.045Z,14.23
2019-05-01T05:56:01.386Z,13.20
2019-05-01T05:58:39.760Z,13.13
2019-05-01T06:01:38.242Z,12.57
2019-05-01T06:04:31.436Z,13.77
2019-05-01T06:07:21.341Z,13.70
2019-05-01T06:10:24.430Z,15.90
2019-05-01T06:13:17.966Z,13.50
2019-05-01T06:16:25.313Z,18.90
2019-05-01T06:19:14.556Z,15.77
2019-05-01T06:22:10.425Z,16.37
2019-05-01T06:24:42.106Z,17.07
2019-05-01T06:27:13.693Z,17.70
2019-05-01T06:29:39.704Z,18.30
2019-05-01T06:32:07.173Z,21.10
2019-05-01T06:34:34.941Z,20.20
2019-05-01T06:37:02.577Z,19.87
2019-05-01T06:39:30.346Z,19.90
2019-05-01T06:41:57.861Z,18.53
2019-05-01T06:44:43.878Z,19.53
2019-05-01T06:47:32.036Z,19.40
2019-05-01T06:50:26.487Z,18.53
2019-05-01T06:52:54.541Z,20.83
2019-05-01T06:55:27.347Z,20.70
2019-05-01T06:57:52.730Z,21.63
2019-05-01T07:00:20.508Z,21.50
2019-05-01T07:02:50.135Z,19.37
2019-05-01T07:05:19.253Z,18.50
2019-05-01T07:07:48.089Z,20.60
2019-05-01T07:10:29.492Z,21.87
2019-05-01T07:12:46.678Z,20.20
2019-05-01T07:15:14.167Z,20.37
2019-05-01T07:17:43.935Z,20.20
2019-05-01T07:20:25.583Z,19.97
2019-05-01T07:22:54.251Z,21.30
2019-05-01T07:25:21.801Z,20.60
2019-05-01T07:27:49.347Z,18.43
2019-05-01T07:30:24.931Z,18.60
2019-05-01T07:32:52.707Z,20.53
2019-05-01T07:35:20.673Z,20.93
2019-05-01T07:37:48.417Z,18.57
2019-05-01T07:40:16.304Z,21.07
2019-05-01T07:42:48.237Z,19.30
2019-05-01T07:45:27.623Z,19.40
2019-05-01T07:47:55.787Z,19.50
2019-05-01T07:50:29.908Z,20.73
2019-05-01T07:52:54.010Z,19.00
2019-05-01T07:55:35.205Z,19.73
2019-05-01T07:58:04.922Z,20.80
2019-05-01T08:00:44.230Z,20.20
2019-05-01T08:03:11.805Z,20.03
2019-05-01T08:05:40.912Z,21.77
2019-05-01T08:08:09.738Z,21.07
2019-05-01T08:10:37.206Z,21.00
2019-05-01T08:13:04.747Z,22.40
2019-05-01T08:15:32.719Z,20.03
2019-05-01T08:18:17.529Z,19.80
2019-05-01T08:20:50.348Z,20.40
2019-05-01T08:23:19.204Z,20.73
2019-05-01T08:25:47.626Z,18.00
2019-05-01T08:28:20.723Z,19.00
2019-05-01T08:31:07.805Z,18.50
2019-05-01T08:33:54.781Z,18.80
2019-05-01T08:36:22.246Z,20.60
2019-05-01T08:38:50.119Z,19.30
2019-05-01T08:41:17.800Z,18.20
2019-05-01T08:43:49.006Z,19.23
2019-05-01T08:46:33.645Z,19.00
2019-05-01T08:49:13.461Z,19.90
2019-05-01T08:51:41.002Z,20.00
2019-05-01T08:54:08.468Z,19.33
2019-05-01T08:56:35.918Z,22.83
2019-05-01T08:59:03.441Z,19.17
2019-05-01T09:01:31.518Z,19.73
2019-05-01T09:04:11.818Z,17.60
2019-05-01T09:06:34.864Z,17.90
2019-05-01T09:09:02.909Z,19.33
2019-05-01T09:11:31.843Z,17.93
2019-05-01T09:14:00.415Z,17.70
2019-05-01T09:16:30.033Z,15.93
2019-05-01T09:18:57.539Z,15.90
2019-05-01T09:21:26.281Z,15.70
2019-05-01T09:23:53.804Z,29.70
2019-05-01T09:26:53.176Z,26.63
2019-05-01T09:29:26.065Z,15.80
2019-05-01T09:31:53.643Z,13.40
2019-05-01T09:34:21.198Z,15.40
2019-05-01T09:36:48.907Z,13.03
2019-05-01T09:39:16.698Z,14.60
2019-05-01T09:41:47.575Z,13.80
2019-05-01T09:44:13.774Z,11.20
2019-05-01T09:46:42.354Z,14.10
2019-05-01T09:49:14.221Z,10.73
2019-05-01T09:51:55.084Z,10.67
2019-05-01T09:54:47.959Z,10.73
2019-05-01T09:57:15.529Z,10.50
2019-05-01T09:59:43.082Z,11.40
2019-05-01T10:02:11.400Z,9.63
2019-05-01T10:04:39.049Z,9.87
2019-05-01T10:07:07.958Z,8.68
2019-05-01T10:09:35.661Z,8.97
2019-05-01T10:12:03.587Z,10.17
2019-05-01T10:14:31.756Z,9.43
2019-05-01T10:17:00.746Z,8.57
2019-05-01T10:19:28.365Z,8.70
2019-05-01T10:21:57.888Z,7.13
2019-05-01T10:24:25.294Z,9.60
2019-05-01T10:26:59.969Z,7.60
2019-05-01T10:29:50.315Z,8.63
2019-05-01T10:32:27.910Z,8.97
2019-05-01T10:35:03.294Z,8.83
2019-05-01T10:37:33.527Z,8.30
2019-05-01T10:40:00.198Z,8.63
2019-05-01T10:42:27.737Z,8.30
2019-05-01T10:44:56.414Z,8.97
2019-05-01T10:47:25.357Z,8.27
2019-05-01T10:49:52.926Z,8.07
2019-05-01T10:52:20.430Z,8.20
2019-05-01T10:54:48.063Z,7.90
2019-05-01T10:57:15.632Z,7.60
2019-05-01T10:59:43.154Z,8.00
2019-05-01T11:02:12.796Z,7.23
2019-05-01T11:04:40.313Z,7.03
2019-05-01T11:07:07.926Z,8.73
2019-05-01T11:09:35.442Z,7.30
2019-05-01T11:12:04.153Z,6.80
2019-05-01T11:14:31.696Z,8.30
2019-05-01T11:16:59.520Z,7.20
2019-05-01T11:19:29.575Z,7.07
2019-05-01T11:21:56.599Z,6.70
2019-05-01T11:24:24.080Z,6.57
2019-05-01T11:26:51.742Z,7.17
2019-05-01T11:29:19.253Z,6.50
2019-05-01T11:32:13.270Z,7.37
2019-05-01T11:35:03.313Z,5.90
2019-05-01T11:37:52.624Z,7.37
2019-05-01T11:40:28.459Z,6.07
2019-05-01T11:42:55.979Z,5.73
2019-05-01T11:45:23.625Z,5.57
2019-05-01T11:47:51.249Z,5.80
2019-05-01T11:50:18.729Z,6.27
2019-05-01T11:52:46.244Z,5.90
2019-05-01T11:55:13.823Z,6.30
2019-05-01T11:57:41.463Z,6.13
2019-05-01T12:00:09.898Z,5.80
2019-05-01T12:02:43.360Z,5.57
2019-05-01T12:05:11.260Z,6.10
2019-05-01T12:07:51.012Z,5.77
2019-05-01T12:10:22.745Z,5.67
2019-05-01T12:12:52.601Z,6.00
2019-05-01T12:15:22.987Z,5.00
2019-05-01T12:17:50.723Z,5.30
2019-05-01T12:20:23.420Z,5.30
2019-05-01T12:22:53.967Z,5.77
2019-05-01T12:25:27.501Z,4.70
2019-05-01T12:27:55.292Z,4.93
2019-05-01T12:30:23.117Z,4.90
2019-05-01T12:32:50.572Z,4.40
2019-05-01T12:35:18.208Z,4.40
2019-05-01T12:37:45.673Z,4.70
2019-05-01T12:40:16.299Z,4.10
2019-05-01T12:42:43.817Z,4.43
2019-05-01T12:45:14.390Z,4.00
2019-05-01T12:47:59.699Z,4.50
2019-05-01T12:50:27.449Z,4.50
2019-05-01T12:53:09.457Z,4.23
2019-05-01T12:55:49.743Z,4.33
2019-05-01T12:58:17.820Z,4.90
2019-05-01T13:00:49.088Z,4.13
2019-05-01T13:03:16.657Z,4.10
2019-05-01T13:05:44.233Z,4.87
2019-05-01T13:08:11.686Z,4.87
2019-05-01T13:10:39.265Z,5.80
2019-05-01T13:13:06.931Z,5.67
2019-05-01T13:15:34.566Z,5.20
2019-05-01T13:18:02.478Z,5.80
2019-05-01T13:20:30.191Z,6.93
2019-05-01T13:22:57.799Z,5.80
2019-05-01T13:25:28.940Z,5.33
2019-05-01T13:28:14.055Z,5.43
2019-05-01T13:31:10.026Z,5.43
2019-05-01T13:33:37.637Z,5.10
2019-05-01T13:36:05.138Z,3.97
2019-05-01T13:38:32.617Z,5.40
2019-05-01T13:41:01.568Z,4.60
2019-05-01T13:43:29.143Z,5.03
2019-05-01T13:45:56.817Z,6.03
2019-05-01T13:48:24.453Z,6.00
2019-05-01T13:50:52.009Z,6.37
2019-05-01T13:53:19.489Z,5.10
2019-05-01T13:55:46.959Z,5.23
2019-05-01T13:58:15.118Z,4.83
2019-05-01T14:00:42.570Z,5.00
2019-05-01T14:03:10.346Z,4.10
2019-05-01T14:05:37.871Z,5.43
2019-05-01T14:08:05.736Z,5.53
2019-05-01T14:10:33.247Z,5.77
2019-05-01T14:13:01.219Z,7.70
2019-05-01T14:15:28.689Z,5.90
2019-05-01T14:17:56.250Z,4.77
2019-05-01T14:20:58.365Z,5.07
2019-05-01T14:23:32.679Z,5.23
2019-05-01T14:26:03.626Z,5.10
2019-05-01T14:28:31.938Z,4.90
2019-05-01T14:30:59.855Z,5.77
2019-05-01T14:33:27.686Z,5.37
2019-05-01T14:35:55.211Z,5.03
2019-05-01T14:38:22.855Z,5.13
2019-05-01T14:40:50.352Z,6.13
2019-05-01T14:43:17.887Z,5.43
2019-05-01T14:45:45.582Z,4.70
2019-05-01T14:48:13.166Z,4.53
2019-05-01T14:50:40.693Z,4.97
2019-05-01T14:53:08.394Z,5.53
2019-05-01T14:55:35.995Z,4.83
2019-05-01T14:58:03.974Z,4.90
2019-05-01T15:00:31.691Z,5.10
2019-05-01T15:02:59.203Z,4.67
2019-05-01T15:05:26.904Z,5.37
2019-05-01T15:07:54.413Z,5.30
2019-05-01T15:10:21.887Z,5.60
2019-05-01T15:12:51.285Z,5.03
2019-05-01T15:15:50.497Z,4.13
2019-05-01T15:18:36.428Z,4.73
2019-05-01T15:21:04.142Z,4.47
2019-05-01T15:23:31.700Z,4.67
2019-05-01T15:25:59.339Z,5.20
2019-05-01T15:28:26.871Z,4.50
2019-05-01T15:30:54.395Z,5.80
2019-05-01T15:33:21.952Z,4.40
2019-05-01T15:35:49.433Z,4.70
2019-05-01T15:38:17.191Z,4.80
2019-05-01T15:40:52.351Z,5.07
2019-05-01T15:43:34.418Z,5.20
2019-05-01T15:46:02.016Z,5.03
2019-05-01T15:48:29.539Z,4.57
2019-05-01T15:50:57.299Z,5.10
2019-05-01T15:53:24.855Z,4.80
2019-05-01T15:55:52.513Z,4.33
2019-05-01T15:58:20.172Z,4.73
2019-05-01T16:00:47.709Z,3.73
2019-05-01T16:03:15.201Z,4.90
2019-05-01T16:05:42.753Z,4.70
2019-05-01T16:08:10.508Z,5.13
2019-05-01T16:10:45.574Z,4.50
2019-05-01T16:13:13.206Z,4.70
2019-05-01T16:15:41.045Z,4.53
2019-05-01T16:18:08.541Z,4.77
2019-05-01T16:20:36.135Z,4.83
2019-05-01T16:23:03.706Z,4.70
2019-05-01T16:25:31.292Z,4.50
2019-05-01T16:27:58.854Z,4.60
2019-05-01T16:30:27.131Z,4.93
2019-05-01T16:32:54.818Z,4.13
2019-05-01T16:35:22.302Z,4.37
2019-05-01T16:37:49.832Z,4.23
2019-05-01T16:40:40.322Z,4.53
2019-05-01T16:43:12.159Z,19.20
2019-05-01T16:45:39.895Z,6.23
2019-05-01T16:48:07.554Z,4.70
2019-05-01T16:50:35.129Z,4.90
2019-05-01T16:53:02.968Z,5.10
2019-05-01T16:55:30.613Z,4.80
2019-05-01T16:57:58.442Z,6.07
2019-05-01T17:01:45.438Z,4.23
2019-05-01T17:04:23.878Z,4.87
2019-05-01T17:07:11.219Z,4.27
2019-05-01T17:09:50.676Z,4.27
2019-05-01T17:12:20.405Z,4.73
2019-05-01T17:14:47.901Z,4.30
2019-05-01T17:17:18.185Z,4.30
2019-05-01T17:19:45.814Z,5.00
2019-05-01T17:22:16.177Z,4.10
2019-05-01T17:24:44.096Z,3.80
2019-05-01T17:27:12.281Z,4.43
2019-05-01T17:29:39.974Z,4.10
2019-05-01T17:32:11.624Z,4.67
2019-05-01T17:34:39.391Z,4.90
2019-05-01T17:37:07.146Z,4.73
2019-05-01T17:39:34.687Z,4.20
2019-05-01T17:42:03.377Z,4.50
2019-05-01T17:44:30.995Z,5.40
2019-05-01T17:46:58.579Z,4.33
2019-05-01T17:49:26.138Z,4.60
2019-05-01T17:51:54.995Z,4.90
2019-05-01T17:54:22.820Z,4.90
2019-05-01T17:56:53.742Z,4.80
2019-05-01T17:59:20.033Z,4.93
2019-05-01T18:02:10.058Z,6.00
2019-05-01T18:04:56.209Z,5.27
2019-05-01T18:07:36.024Z,5.50
2019-05-01T18:10:04.455Z,4.90
2019-05-01T18:12:32.159Z,5.73
2019-05-01T18:14:59.805Z,5.83
2019-05-01T18:17:27.441Z,5.63
2019-05-01T18:19:55.099Z,6.40
2019-05-01T18:22:42.034Z,4.93
2019-05-01T18:25:28.168Z,5.33
2019-05-01T18:28:14.370Z,5.57
2019-05-01T18:30:42.762Z,6.63
2019-05-01T18:33:10.350Z,6.00
2019-05-01T18:35:38.049Z,5.70
2019-05-01T18:38:31.163Z,6.70
2019-05-01T18:41:18.214Z,23.47
2019-05-01T18:43:45.942Z,15.43
2019-05-01T18:46:13.500Z,10.70
2019-05-01T18:48:41.330Z,7.83
2019-05-01T18:51:08.977Z,7.03
2019-05-01T18:53:36.667Z,6.90
2019-05-01T18:56:05.513Z,7.33
2019-05-01T18:58:34.235Z,7.53
2019-05-01T19:01:04.092Z,6.47
2019-05-01T19:03:32.066Z,5.90
2019-05-01T19:05:59.582Z,6.70
2019-05-01T19:08:27.256Z,7.80
2019-05-01T19:10:54.991Z,7.70
2019-05-01T19:13:24.233Z,8.00
2019-05-01T19:15:51.847Z,8.03
2019-05-01T19:18:19.616Z,7.00
2019-05-01T19:20:58.929Z,8.07
2019-05-01T19:23:16.995Z,7.80
2019-05-01T19:25:44.747Z,7.73
2019-05-01T19:28:15.119Z,7.30
2019-05-01T19:30:42.663Z,7.60
2019-05-01T19:33:10.345Z,6.73
2019-05-01T19:35:38.166Z,6.97
2019-05-01T19:38:06.338Z,7.10
2019-05-01T19:40:33.881Z,6.80
2019-05-01T19:43:01.813Z,7.00
2019-05-01T19:45:29.712Z,7.20
2019-05-01T19:47:58.360Z,7.97
2019-05-01T19:50:25.947Z,7.67
2019-05-01T19:52:53.583Z,8.30
2019-05-01T19:55:21.324Z,7.33
2019-05-01T19:57:48.995Z,7.50
2019-05-01T20:00:29.741Z,6.50
2019-05-01T20:02:59.046Z,5.60
2019-05-01T20:05:27.524Z,8.10
2019-05-01T20:07:57.859Z,5.90
2019-05-01T20:10:26.977Z,6.70
2019-05-01T20:12:54.855Z,7.80
2019-05-01T20:15:25.044Z,6.97
2019-05-01T20:17:52.180Z,8.40
2019-05-01T20:20:20.022Z,6.77
2019-05-01T20:22:48.255Z,7.63
2019-05-01T20:25:19.383Z,6.30
2019-05-01T20:27:52.616Z,7.10
2019-05-01T20:30:16.254Z,7.70
2019-05-01T20:32:43.744Z,7.30
2019-05-01T20:35:11.274Z,7.03
2019-05-01T20:37:38.751Z,8.20
2019-05-01T20:40:11.376Z,6.87
2019-05-01T20:42:37.756Z,7.57
2019-05-01T20:45:12.621Z,7.00
2019-05-01T20:47:49.702Z,7.80
2019-05-01T20:50:19.674Z,8.10
2019-05-01T20:52:48.248Z,8.87
2019-05-01T20:55:15.925Z,7.00
2019-05-01T20:57:45.233Z,7.40
2019-05-01T21:00:16.590Z,7.87
2019-05-01T21:02:43.162Z,7.80
2019-05-01T21:05:21.630Z,7.70
2019-05-01T21:07:59.314Z,8.30
2019-05-01T21:10:34.253Z,8.13
2019-05-01T21:12:59.679Z,8.60
2019-05-01T21:15:27.387Z,7.00
2019-05-01T21:17:55.098Z,8.90
2019-05-01T21:20:25.721Z,8.00
2019-05-01T21:22:53.683Z,9.87
2019-05-01T21:25:21.352Z,8.90
2019-05-01T21:27:50.227Z,8.80
2019-05-01T21:30:17.723Z,9.57
2019-05-01T21:32:45.269Z,8.10
2019-05-01T21:35:13.772Z,7.50
2019-05-01T21:37:41.400Z,9.33
2019-05-01T21:40:09.300Z,9.50
2019-05-01T21:42:37.570Z,9.00
2019-05-01T21:45:05.500Z,9.27
2019-05-01T21:47:33.524Z,9.23
2019-05-01T21:50:03.205Z,8.80
2019-05-01T21:52:30.995Z,8.67
2019-05-01T21:54:58.574Z,9.40
2019-05-01T21:57:27.853Z,9.20
2019-05-01T21:59:55.516Z,7.93
2019-05-01T22:02:23.215Z,10.40
2019-05-01T22:04:50.945Z,8.83
2019-05-01T22:07:18.490Z,9.23
2019-05-01T22:09:50.524Z,8.47
2019-05-01T22:12:16.730Z,8.10
2019-05-01T22:14:51.822Z,9.83
2019-05-01T22:17:27.416Z,10.00
2019-05-01T22:19:54.873Z,9.00
2019-05-01T22:22:32.325Z,9.20
2019-05-01T22:25:34.445Z,9.23
2019-05-01T22:28:18.839Z,9.63
2019-05-01T22:30:50.726Z,8.67
2019-05-01T22:33:18.318Z,10.23
2019-05-01T22:35:48.327Z,9.00
2019-05-01T22:38:15.970Z,10.30
2019-05-01T22:41:06.220Z,9.20
2019-05-01T22:43:26.995Z,8.77
2019-05-01T22:45:56.405Z,10.63
2019-05-01T22:48:23.933Z,10.60
2019-05-01T22:50:54.105Z,10.80
2019-05-01T22:53:22.394Z,10.13
2019-05-01T22:55:49.998Z,10.70
2019-05-01T22:58:17.577Z,10.17
2019-05-01T23:00:49.382Z,10.43
2019-05-01T23:03:21.646Z,9.40
2019-05-01T23:05:49.130Z,9.10
2019-05-01T23:08:16.559Z,9.77
2019-05-01T23:10:46.874Z,10.03
2019-05-01T23:13:13.865Z,10.30
2019-05-01T23:15:41.474Z,9.97
2019-05-01T23:18:10.631Z,10.10
2019-05-01T23:20:39.114Z,10.67
2019-05-01T23:23:07.818Z,10.17
2019-05-01T23:25:36.587Z,10.90
2019-05-01T23:28:06.044Z,11.00
2019-05-01T23:30:33.833Z,10.47
2019-05-01T23:33:01.540Z,9.70
2019-05-01T23:35:29.626Z,11.73
2019-05-01T23:37:57.065Z,10.17
2019-05-01T23:40:24.622Z,10.53
2019-05-01T23:42:53.779Z,10.60
2019-05-01T23:45:21.596Z,11.10
2019-05-01T23:47:49.197Z,11.30
2019-05-01T23:50:18.197Z,10.60
2019-05-01T23:52:46.789Z,10.40
2019-05-01T23:55:14.353Z,11.87
2019-05-01T23:57:41.810Z,11.50
